createdAt,value
2023-04-14T00:01:58.417Z,7.3125
2023-04-14T00:06:59.240Z,7.375
2023-04-14T00:12:00.173Z,7.4375
2023-04-14T00:17:01.039Z,7.5
2023-04-14T00:22:01.915Z,7.5625
2023-04-14T00:27:02.733Z,7.75
2023-04-14T00:32:03.772Z,7.6875
2023-04-14T00:37:05.194Z,7.6875
2023-04-14T00:42:05.620Z,7.75
2023-04-14T00:47:06.600Z,7.75
2023-04-14T00:52:07.392Z,7.8125
2023-04-14T00:57:08.472Z,8.125
2023-04-14T01:02:09.372Z,8.125
2023-04-14T01:07:10.288Z,8.1875
2023-04-14T01:12:11.112Z,8.25
2023-04-14T01:17:12.151Z,8.25
2023-04-14T01:22:13.060Z,8.3125
2023-04-14T01:27:14.086Z,8.375
2023-04-14T01:32:14.815Z,8.375
2023-04-14T01:37:16.420Z,8.375
2023-04-14T01:42:16.689Z,8.375
2023-04-14T01:47:17.732Z,8.3125
2023-04-14T01:52:18.730Z,8.3125
2023-04-14T01:57:19.722Z,8.25
2023-04-14T02:02:20.744Z,8.25
2023-04-14T02:07:21.606Z,8.3125
2023-04-14T02:12:22.563Z,8.3125
2023-04-14T02:17:23.645Z,8.3125
2023-04-14T02:22:24.634Z,8.25
2023-04-14T02:27:25.506Z,8.25
2023-04-14T02:32:26.481Z,8.25
2023-04-14T02:37:27.595Z,8.25
2023-04-14T02:42:28.614Z,8.3125
2023-04-14T02:47:29.676Z,8.3125
2023-04-14T02:52:30.542Z,8.25
2023-04-14T02:57:31.565Z,8.3125
2023-04-14T03:02:32.543Z,8.25
2023-04-14T03:07:33.558Z,8.3125
2023-04-14T03:12:34.457Z,8.25
2023-04-14T03:17:35.432Z,8.1875
2023-04-14T03:22:36.284Z,8.1875
2023-04-14T03:27:37.048Z,8.1875
2023-04-14T03:32:38.379Z,8.1875
2023-04-14T03:37:40.344Z,8.25
2023-04-14T03:42:40.432Z,8.25
2023-04-14T03:47:41.443Z,8.25
2023-04-14T03:52:42.493Z,8.1875
2023-04-14T03:57:43.384Z,8.1875
2023-04-14T04:02:44.413Z,8.25
2023-04-14T04:07:45.283Z,8.3125
2023-04-14T04:12:46.246Z,8.25
2023-04-14T04:17:47.333Z,8.3125
2023-04-14T04:22:48.463Z,8.3125
2023-04-14T04:27:49.419Z,8.375
2023-04-14T04:32:50.427Z,8.4375
2023-04-14T04:37:51.274Z,8.4375
2023-04-14T04:42:52.293Z,8.5
2023-04-14T04:47:53.321Z,8.5
2023-04-14T04:52:54.155Z,8.5625
2023-04-14T04:57:55.012Z,8.625
2023-04-14T05:02:56.128Z,8.6875
2023-04-14T05:07:56.996Z,8.75
2023-04-14T05:12:57.888Z,8.6875
2023-04-14T05:17:58.906Z,8.6875
2023-04-14T05:22:59.949Z,8.75
2023-04-14T05:28:00.939Z,8.625
2023-04-14T05:33:02.099Z,8.625
2023-04-14T05:38:03.555Z,8.625
2023-04-14T05:43:03.887Z,8.5625
2023-04-14T05:48:04.907Z,8.625
2023-04-14T05:53:05.919Z,8.625
2023-04-14T05:58:06.886Z,8.625
2023-04-14T06:03:07.988Z,8.625
2023-04-14T06:08:08.842Z,8.75
2023-04-14T06:13:09.813Z,8.8125
2023-04-14T06:18:10.722Z,8.8125
2023-04-14T06:23:11.725Z,8.875
2023-04-14T06:28:12.545Z,8.9375
2023-04-14T06:33:13.509Z,9
2023-04-14T06:38:14.591Z,9.125
2023-04-14T06:43:15.338Z,9.1875
2023-04-14T06:48:16.209Z,9.25
2023-04-14T06:53:17.093Z,9.1875
2023-04-14T06:58:18.081Z,9.25
2023-04-14T07:03:19.091Z,9.375
2023-04-14T07:08:19.991Z,9.4375
2023-04-14T07:13:21.087Z,9.5
2023-04-14T07:18:22.123Z,9.5625
2023-04-14T07:23:23.044Z,9.6875
2023-04-14T07:28:24.109Z,9.8125
2023-04-14T07:33:24.922Z,9.8125
2023-04-14T07:38:26.112Z,10.1875
2023-04-14T07:43:27.096Z,10.1875
2023-04-14T07:48:27.914Z,10.1875
2023-04-14T07:53:28.847Z,10.1875
2023-04-14T07:58:30.058Z,10.25
2023-04-14T08:03:30.961Z,10.0625
2023-04-14T08:08:31.677Z,10.0625
2023-04-14T08:13:32.720Z,9.75
2023-04-14T08:18:33.611Z,9.5625
2023-04-14T08:23:34.654Z,9.625
2023-04-14T08:28:35.581Z,9.375
2023-04-14T08:33:36.625Z,9.25
2023-04-14T08:38:37.640Z,9.125
2023-04-14T08:43:38.712Z,9.125
2023-04-14T08:48:39.514Z,9.375
2023-04-14T08:53:40.386Z,9.3125
2023-04-14T08:58:41.269Z,9.4375
2023-04-14T09:03:42.479Z,9.4375
2023-04-14T09:08:43.283Z,9.4375
2023-04-14T09:13:44.292Z,9.5
2023-04-14T09:18:45.351Z,9.3125
2023-04-14T09:23:46.356Z,9.375
2023-04-14T09:28:47.129Z,9.375
2023-04-14T09:33:48.254Z,9.25
2023-04-14T09:38:49.294Z,9.125
2023-04-14T09:43:49.990Z,9.0625
2023-04-14T09:48:51.040Z,9.4375
2023-04-14T09:53:51.969Z,9.4375
2023-04-14T09:58:52.882Z,9.5625
2023-04-14T10:03:53.819Z,9.4375
2023-04-14T10:08:55.158Z,9.6875
2023-04-14T10:13:56.008Z,9.75
2023-04-14T10:18:57.029Z,9.8125
2023-04-14T10:23:58.186Z,9.875
2023-04-14T10:28:59.093Z,9.875
2023-04-14T10:33:59.917Z,9.875
2023-04-14T10:39:01.658Z,10
2023-04-14T10:44:01.898Z,9.75
2023-04-14T10:49:03.138Z,9.8125
2023-04-14T10:54:03.841Z,9.875
2023-04-14T10:59:04.664Z,9.625
2023-04-14T11:04:05.652Z,9.75
2023-04-14T11:09:06.672Z,9.5
2023-04-14T11:14:07.460Z,9.3125
2023-04-14T11:19:08.331Z,9.25
2023-04-14T11:24:09.213Z,9.1875
2023-04-14T11:29:10.162Z,9.0625
2023-04-14T11:34:10.943Z,8.9375
2023-04-14T11:39:12.328Z,8.875
2023-04-14T11:44:12.643Z,8.75
2023-04-14T11:49:13.804Z,8.625
2023-04-14T11:54:14.877Z,8.5625
2023-04-14T11:59:16.068Z,8.5625
2023-04-14T12:04:17.141Z,8.625
2023-04-14T12:09:18.253Z,8.75
2023-04-14T12:14:19.310Z,8.75
2023-04-14T12:19:20.032Z,8.6875
2023-04-14T12:24:21.110Z,8.8125
2023-04-14T12:29:21.833Z,8.625
2023-04-14T12:34:22.846Z,8.5625
2023-04-14T12:39:24.004Z,8.5
2023-04-14T12:44:24.980Z,8.5
2023-04-14T12:49:26.043Z,8.375
2023-04-14T12:54:27.122Z,8.375
2023-04-14T12:59:28.142Z,8.375
2023-04-14T13:04:29.058Z,8.5
2023-04-14T13:09:30.296Z,8.5
2023-04-14T13:14:31.050Z,8.5625
2023-04-14T13:19:32.017Z,8.625
2023-04-14T13:24:33.028Z,8.5625
2023-04-14T13:29:33.747Z,8.375
2023-04-14T13:34:34.848Z,8.4375
2023-04-14T13:39:36.644Z,8.4375
2023-04-14T13:44:36.807Z,8.375
2023-04-14T13:49:37.695Z,8.375
2023-04-14T13:54:38.635Z,8.3125
2023-04-14T13:59:39.555Z,8.25
2023-04-14T14:04:40.581Z,8.25
2023-04-14T14:09:41.485Z,8.3125
2023-04-14T14:14:42.533Z,8.3125
2023-04-14T14:19:43.637Z,8.3125
2023-04-14T14:24:44.586Z,8.4375
2023-04-14T14:29:45.657Z,8.5
2023-04-14T14:34:46.893Z,8.4375
2023-04-14T14:39:47.892Z,8.4375
2023-04-14T14:44:48.982Z,8.375
2023-04-14T14:49:59.316Z,8.4375
2023-04-14T14:54:50.968Z,8.375
2023-04-14T14:59:51.960Z,8.3125
2023-04-14T15:04:52.887Z,8.3125
2023-04-14T15:09:53.787Z,8.3125
2023-04-14T15:14:54.730Z,8.3125
2023-04-14T15:19:55.588Z,8.25
2023-04-14T15:24:56.419Z,8.25
2023-04-14T15:29:57.445Z,8.25
2023-04-14T15:34:58.485Z,8.3125
2023-04-14T15:39:59.841Z,8.1875
2023-04-14T15:45:00.287Z,8.125
2023-04-14T15:50:07.520Z,8.0625
2023-04-14T15:55:02.512Z,8.0625
2023-04-14T16:00:03.817Z,8
2023-04-14T16:05:04.995Z,7.9375
2023-04-14T16:10:05.802Z,7.9375
2023-04-14T16:15:06.723Z,7.875
2023-04-14T16:20:07.763Z,7.9375
2023-04-14T16:25:08.789Z,7.9375
2023-04-14T16:30:09.850Z,7.875
2023-04-14T16:35:10.932Z,7.9375
2023-04-14T16:40:12.030Z,7.875
2023-04-14T16:45:12.851Z,7.875
2023-04-14T16:50:13.754Z,7.875
2023-04-14T16:55:14.706Z,7.8125
2023-04-14T17:00:15.601Z,7.875
2023-04-14T17:05:16.855Z,7.875
2023-04-14T17:10:17.567Z,7.9375
2023-04-14T17:15:18.462Z,7.875
2023-04-14T17:20:19.771Z,7.9375
2023-04-14T17:25:20.619Z,7.9375
2023-04-14T17:30:21.595Z,7.875
2023-04-14T17:35:22.578Z,7.9375
2023-04-14T17:40:23.486Z,7.875
2023-04-14T17:45:24.489Z,7.875
2023-04-14T17:50:25.449Z,7.8125
2023-04-14T17:55:26.271Z,7.8125
2023-04-14T18:00:27.158Z,7.8125
2023-04-14T18:05:28.042Z,7.8125
2023-04-14T18:10:28.959Z,7.75
2023-04-14T18:15:30.110Z,7.8125
2023-04-14T18:20:31.095Z,7.8125
2023-04-14T18:30:33.111Z,7.875
2023-04-14T18:35:34.130Z,7.875
2023-04-14T18:40:35.189Z,7.875
2023-04-14T18:45:35.942Z,7.875
2023-04-14T18:50:36.778Z,7.875
2023-04-14T18:55:41.513Z,7.9375
2023-04-14T19:00:38.518Z,7.875
2023-04-14T19:05:39.424Z,7.875
2023-04-14T19:10:40.328Z,7.875
2023-04-14T19:15:41.256Z,7.875
2023-04-14T19:20:42.058Z,7.875
2023-04-14T19:25:43.108Z,7.875
2023-04-14T19:30:43.950Z,7.9375
2023-04-14T19:35:44.959Z,7.875
2023-04-14T19:40:46.125Z,7.875
2023-04-14T19:45:46.943Z,7.875
2023-04-14T19:50:47.999Z,7.9375
2023-04-14T19:55:48.878Z,8
2023-04-14T20:00:49.974Z,8.0625
2023-04-14T20:05:51.109Z,8
2023-04-14T20:10:52.113Z,8
2023-04-14T20:15:53.188Z,8
2023-04-14T20:20:54.073Z,8.0625
2023-04-14T20:25:54.891Z,8.1875
2023-04-14T20:30:56.084Z,8
2023-04-14T20:35:56.866Z,8
2023-04-14T20:40:58.133Z,8
2023-04-14T20:45:58.571Z,8
2023-04-14T20:50:59.883Z,7.9375
2023-04-14T20:56:00.508Z,7.9375
2023-04-14T21:01:01.687Z,8.0625
2023-04-14T21:06:02.845Z,8.125
2023-04-14T21:11:14.878Z,8.1875
2023-04-14T21:16:05.325Z,8.1875
2023-04-14T21:21:05.846Z,8.125
2023-04-14T21:26:06.652Z,8.0625
2023-04-14T21:31:07.779Z,8.125
2023-04-14T21:36:08.913Z,8.1875
2023-04-14T21:41:09.888Z,8.125
2023-04-14T21:46:10.701Z,8.125
2023-04-14T21:51:11.658Z,8.125
2023-04-14T21:56:12.768Z,8.0625
2023-04-14T22:01:13.598Z,8.0625
2023-04-14T22:06:14.542Z,8
2023-04-14T22:11:15.693Z,8
2023-04-14T22:16:16.557Z,8
2023-04-14T22:21:17.298Z,8
2023-04-14T22:26:18.393Z,8
2023-04-14T22:31:19.443Z,8
2023-04-14T22:36:20.459Z,8
2023-04-14T22:41:21.430Z,8
2023-04-14T22:46:22.299Z,8
2023-04-14T22:51:23.085Z,8.0625
2023-04-14T22:56:24.013Z,8.0625
2023-04-14T23:01:25.137Z,8.0625
2023-04-14T23:06:26.104Z,8.125
2023-04-14T23:11:27.128Z,8.0625
2023-04-14T23:16:28.127Z,8.0625
2023-04-14T23:21:29.000Z,8.125
2023-04-14T23:26:30.209Z,8.125
2023-04-14T23:31:31.192Z,8.125
2023-04-14T23:36:31.982Z,8.125
2023-04-14T23:41:32.933Z,8.125
2023-04-14T23:46:33.719Z,8.125
2023-04-14T23:51:34.642Z,8.1875
2023-04-14T23:56:35.634Z,8.1875
